sensor_id;sensor_type;location;lat;lon;timestamp;pressure;altitude;pressure_sealevel;temperature;humidity
56182;BME280;51963;46.052;14.544;2023-07-13T00:00:02;97950.91;;;22.22;100.00
56182;BME280;51963;46.052;14.544;2023-07-13T00:02:31;97955.47;;;22.22;100.00
56182;BME280;51963;46.052;14.544;2023-07-13T00:04:58;97957.34;;;22.21;100.00
56182;BME280;51963;46.052;14.544;2023-07-13T00:07:23;97950.91;;;22.22;100.00
56182;BME280;51963;46.052;14.544;2023-07-13T00:09:49;97950.03;;;22.42;100.00
56182;BME280;51963;46.052;14.544;2023-07-13T00:12:27;97956.50;;;22.36;100.00
56182;BME280;51963;46.052;14.544;2023-07-13T00:14:59;97954.78;;;22.66;100.00
56182;BME280;51963;46.052;14.544;2023-07-13T00:17:26;97951.31;;;22.61;100.00
56182;BME280;51963;46.052;14.544;2023-07-13T00:19:52;97924.16;;;22.52;100.00
56182;BME280;51963;46.052;14.544;2023-07-13T00:22:19;97912.81;;;22.60;100.00
56182;BME280;51963;46.052;14.544;2023-07-13T00:24:45;97902.31;;;22.53;100.00
56182;BME280;51963;46.052;14.544;2023-07-13T00:27:12;97892.66;;;22.42;100.00
56182;BME280;51963;46.052;14.544;2023-07-13T00:29:38;97893.78;;;22.31;100.00
56182;BME280;51963;46.052;14.544;2023-07-13T00:32:05;97888.38;;;22.36;100.00
56182;BME280;51963;46.052;14.544;2023-07-13T00:34:31;97876.31;;;22.23;100.00
56182;BME280;51963;46.052;14.544;2023-07-13T00:36:59;97886.75;;;22.35;100.00
56182;BME280;51963;46.052;14.544;2023-07-13T00:39:27;97905.44;;;22.16;100.00
56182;BME280;51963;46.052;14.544;2023-07-13T00:41:53;97926.91;;;22.31;100.00
56182;BME280;51963;46.052;14.544;2023-07-13T00:44:20;97920.94;;;22.39;100.00
56182;BME280;51963;46.052;14.544;2023-07-13T00:46:48;97922.13;;;22.18;100.00
56182;BME280;51963;46.052;14.544;2023-07-13T00:49:16;97910.84;;;22.05;100.00
56182;BME280;51963;46.052;14.544;2023-07-13T00:51:48;97910.44;;;22.48;100.00
56182;BME280;51963;46.052;14.544;2023-07-13T00:54:19;97912.31;;;22.48;100.00
56182;BME280;51963;46.052;14.544;2023-07-13T00:56:49;97896.81;;;22.19;100.00
56182;BME280;51963;46.052;14.544;2023-07-13T00:59:16;97910.75;;;22.31;100.00
56182;BME280;51963;46.052;14.544;2023-07-13T01:01:46;97929.31;;;22.33;100.00
56182;BME280;51963;46.052;14.544;2023-07-13T01:04:11;97944.38;;;22.34;100.00
56182;BME280;51963;46.052;14.544;2023-07-13T01:06:39;97944.63;;;22.53;100.00
56182;BME280;51963;46.052;14.544;2023-07-13T01:09:06;97966.94;;;22.59;100.00
56182;BME280;51963;46.052;14.544;2023-07-13T01:11:35;98013.56;;;22.59;100.00
56182;BME280;51963;46.052;14.544;2023-07-13T01:14:03;98078.44;;;22.68;100.00
56182;BME280;51963;46.052;14.544;2023-07-13T01:16:32;98110.19;;;22.86;100.00
56182;BME280;51963;46.052;14.544;2023-07-13T01:21:28;98139.63;;;22.26;100.00
56182;BME280;51963;46.052;14.544;2023-07-13T01:23:54;98100.88;;;21.91;100.00
56182;BME280;51963;46.052;14.544;2023-07-13T01:26:22;98039.50;;;21.62;100.00
56182;BME280;51963;46.052;14.544;2023-07-13T01:28:47;98092.16;;;21.37;100.00
56182;BME280;51963;46.052;14.544;2023-07-13T01:31:15;98124.66;;;21.30;100.00
56182;BME280;51963;46.052;14.544;2023-07-13T01:33:41;98219.81;;;20.81;100.00
56182;BME280;51963;46.052;14.544;2023-07-13T01:36:08;98245.13;;;20.52;100.00
56182;BME280;51963;46.052;14.544;2023-07-13T01:38:35;98197.69;;;20.03;100.00
56182;BME280;51963;46.052;14.544;2023-07-13T01:41:01;98184.22;;;19.48;100.00
56182;BME280;51963;46.052;14.544;2023-07-13T01:43:27;98127.38;;;19.02;100.00
56182;BME280;51963;46.052;14.544;2023-07-13T01:45:53;98149.78;;;18.96;100.00
56182;BME280;51963;46.052;14.544;2023-07-13T01:48:19;98132.03;;;18.89;100.00
56182;BME280;51963;46.052;14.544;2023-07-13T01:50:47;98109.75;;;18.67;100.00
56182;BME280;51963;46.052;14.544;2023-07-13T01:53:18;98184.22;;;19.04;100.00
56182;BME280;51963;46.052;14.544;2023-07-13T01:55:44;98168.06;;;18.99;100.00
56182;BME280;51963;46.052;14.544;2023-07-13T01:58:10;98137.03;;;19.03;100.00
56182;BME280;51963;46.052;14.544;2023-07-13T02:00:36;98123.00;;;18.96;100.00
56182;BME280;51963;46.052;14.544;2023-07-13T02:03:01;98104.69;;;18.87;100.00
56182;BME280;51963;46.052;14.544;2023-07-13T02:05:27;98100.22;;;19.15;100.00
56182;BME280;51963;46.052;14.544;2023-07-13T02:07:55;98116.72;;;19.07;100.00
56182;BME280;51963;46.052;14.544;2023-07-13T02:10:21;98115.13;;;19.06;100.00
56182;BME280;51963;46.052;14.544;2023-07-13T02:12:49;98104.84;;;18.98;100.00
56182;BME280;51963;46.052;14.544;2023-07-13T02:15:16;98131.28;;;18.94;100.00
56182;BME280;51963;46.052;14.544;2023-07-13T02:17:42;98160.41;;;19.30;100.00
56182;BME280;51963;46.052;14.544;2023-07-13T02:20:08;98174.06;;;19.28;100.00
56182;BME280;51963;46.052;14.544;2023-07-13T02:22:35;98188.09;;;19.13;100.00
56182;BME280;51963;46.052;14.544;2023-07-13T02:25:01;98188.84;;;19.31;100.00
56182;BME280;51963;46.052;14.544;2023-07-13T02:27:27;98166.00;;;19.06;100.00
56182;BME280;51963;46.052;14.544;2023-07-13T02:29:53;98207.91;;;18.95;100.00
56182;BME280;51963;46.052;14.544;2023-07-13T02:32:20;98244.13;;;18.98;100.00
56182;BME280;51963;46.052;14.544;2023-07-13T02:34:46;98301.28;;;19.03;100.00
56182;BME280;51963;46.052;14.544;2023-07-13T02:37:12;98280.66;;;19.04;100.00
56182;BME280;51963;46.052;14.544;2023-07-13T02:39:38;98275.84;;;18.72;100.00
56182;BME280;51963;46.052;14.544;2023-07-13T02:42:04;98234.78;;;18.49;100.00
56182;BME280;51963;46.052;14.544;2023-07-13T02:44:30;98165.19;;;18.32;100.00
56182;BME280;51963;46.052;14.544;2023-07-13T02:46:55;98140.94;;;18.22;100.00
56182;BME280;51963;46.052;14.544;2023-07-13T02:49:21;98101.38;;;18.24;100.00
56182;BME280;51963;46.052;14.544;2023-07-13T02:51:50;98107.88;;;18.11;100.00
56182;BME280;51963;46.052;14.544;2023-07-13T02:54:16;98109.34;;;18.01;100.00
56182;BME280;51963;46.052;14.544;2023-07-13T02:56:42;98104.44;;;17.98;100.00
56182;BME280;51963;46.052;14.544;2023-07-13T02:59:09;98091.19;;;18.03;100.00
56182;BME280;51963;46.052;14.544;2023-07-13T03:01:35;98131.66;;;17.95;100.00
56182;BME280;51963;46.052;14.544;2023-07-13T03:04:02;98144.53;;;18.27;100.00
56182;BME280;51963;46.052;14.544;2023-07-13T03:06:32;98115.97;;;18.16;100.00
56182;BME280;51963;46.052;14.544;2023-07-13T03:08:58;98086.63;;;18.04;100.00
56182;BME280;51963;46.052;14.544;2023-07-13T03:11:29;98067.97;;;17.92;100.00
56182;BME280;51963;46.052;14.544;2023-07-13T03:14:22;98072.34;;;17.98;100.00
56182;BME280;51963;46.052;14.544;2023-07-13T03:16:48;98073.75;;;18.01;100.00
56182;BME280;51963;46.052;14.544;2023-07-13T03:19:14;98059.38;;;18.07;100.00
56182;BME280;51963;46.052;14.544;2023-07-13T03:21:42;98083.69;;;18.23;100.00
56182;BME280;51963;46.052;14.544;2023-07-13T03:24:08;98080.25;;;18.44;100.00
56182;BME280;51963;46.052;14.544;2023-07-13T03:26:34;98069.91;;;18.31;100.00
56182;BME280;51963;46.052;14.544;2023-07-13T03:29:09;98073.00;;;18.40;100.00
56182;BME280;51963;46.052;14.544;2023-07-13T03:31:35;98062.91;;;18.47;100.00
56182;BME280;51963;46.052;14.544;2023-07-13T03:34:02;98021.22;;;18.12;100.00
56182;BME280;51963;46.052;14.544;2023-07-13T03:36:30;98049.97;;;18.22;100.00
56182;BME280;51963;46.052;14.544;2023-07-13T03:39:03;98044.06;;;18.20;100.00
56182;BME280;51963;46.052;14.544;2023-07-13T03:41:36;98040.31;;;18.21;100.00
56182;BME280;51963;46.052;14.544;2023-07-13T03:44:02;98049.25;;;18.26;100.00
56182;BME280;51963;46.052;14.544;2023-07-13T03:46:29;98048.13;;;18.22;100.00
56182;BME280;51963;46.052;14.544;2023-07-13T03:48:57;98051.25;;;18.36;100.00
56182;BME280;51963;46.052;14.544;2023-07-13T03:51:22;98058.13;;;18.49;100.00
56182;BME280;51963;46.052;14.544;2023-07-13T03:53:49;98066.56;;;18.41;100.00
56182;BME280;51963;46.052;14.544;2023-07-13T03:56:18;98067.88;;;18.77;100.00
56182;BME280;51963;46.052;14.544;2023-07-13T03:58:46;98074.47;;;18.70;100.00
56182;BME280;51963;46.052;14.544;2023-07-13T04:01:24;98063.59;;;18.99;100.00
56182;BME280;51963;46.052;14.544;2023-07-13T04:03:51;98082.91;;;19.01;100.00
56182;BME280;51963;46.052;14.544;2023-07-13T04:06:28;98085.03;;;18.99;100.00
56182;BME280;51963;46.052;14.544;2023-07-13T04:08:59;98076.03;;;18.88;100.00
56182;BME280;51963;46.052;14.544;2023-07-13T04:11:27;98078.25;;;18.74;100.00
56182;BME280;51963;46.052;14.544;2023-07-13T04:13:54;98080.44;;;18.77;100.00
56182;BME280;51963;46.052;14.544;2023-07-13T04:16:20;98082.44;;;18.87;100.00
56182;BME280;51963;46.052;14.544;2023-07-13T04:18:47;98095.59;;;18.88;100.00
56182;BME280;51963;46.052;14.544;2023-07-13T04:21:14;98085.31;;;18.80;100.00
56182;BME280;51963;46.052;14.544;2023-07-13T04:23:40;98092.06;;;19.05;100.00
56182;BME280;51963;46.052;14.544;2023-07-13T04:26:06;98087.75;;;19.04;100.00
56182;BME280;51963;46.052;14.544;2023-07-13T04:28:33;98093.13;;;19.26;100.00
56182;BME280;51963;46.052;14.544;2023-07-13T04:31:00;98091.44;;;19.20;100.00
56182;BME280;51963;46.052;14.544;2023-07-13T04:33:26;98095.03;;;19.31;100.00
56182;BME280;51963;46.052;14.544;2023-07-13T04:35:54;98099.53;;;19.53;100.00
56182;BME280;51963;46.052;14.544;2023-07-13T04:38:23;98091.53;;;19.58;100.00
56182;BME280;51963;46.052;14.544;2023-07-13T04:40:50;98089.84;;;19.46;100.00
56182;BME280;51963;46.052;14.544;2023-07-13T04:43:16;98089.13;;;19.29;100.00
56182;BME280;51963;46.052;14.544;2023-07-13T04:45:42;98103.19;;;19.41;100.00
56182;BME280;51963;46.052;14.544;2023-07-13T04:48:08;98114.41;;;19.38;100.00
56182;BME280;51963;46.052;14.544;2023-07-13T04:50:36;98111.78;;;19.43;100.00
56182;BME280;51963;46.052;14.544;2023-07-13T04:53:02;98098.63;;;19.69;100.00
56182;BME280;51963;46.052;14.544;2023-07-13T04:55:29;98100.84;;;19.77;100.00
56182;BME280;51963;46.052;14.544;2023-07-13T04:57:56;98102.13;;;19.70;100.00
56182;BME280;51963;46.052;14.544;2023-07-13T05:00:24;98124.75;;;19.79;100.00
56182;BME280;51963;46.052;14.544;2023-07-13T05:02:50;98124.38;;;19.92;100.00
56182;BME280;51963;46.052;14.544;2023-07-13T05:05:20;98126.16;;;19.59;100.00
56182;BME280;51963;46.052;14.544;2023-07-13T05:07:46;98131.06;;;19.95;100.00
56182;BME280;51963;46.052;14.544;2023-07-13T05:10:12;98122.97;;;19.90;100.00
56182;BME280;51963;46.052;14.544;2023-07-13T05:12:38;98139.47;;;20.04;100.00
56182;BME280;51963;46.052;14.544;2023-07-13T05:15:06;98141.44;;;20.14;100.00
56182;BME280;51963;46.052;14.544;2023-07-13T05:17:32;98124.03;;;19.89;100.00
56182;BME280;51963;46.052;14.544;2023-07-13T05:19:58;98125.94;;;19.66;100.00
56182;BME280;51963;46.052;14.544;2023-07-13T05:22:24;98131.41;;;19.76;100.00
56182;BME280;51963;46.052;14.544;2023-07-13T05:24:50;98124.41;;;19.98;100.00
56182;BME280;51963;46.052;14.544;2023-07-13T05:27:18;98124.31;;;20.20;100.00
56182;BME280;51963;46.052;14.544;2023-07-13T05:29:44;98128.66;;;20.26;100.00
56182;BME280;51963;46.052;14.544;2023-07-13T05:32:10;98139.09;;;20.22;100.00
56182;BME280;51963;46.052;14.544;2023-07-13T05:34:35;98133.78;;;20.28;100.00
56182;BME280;51963;46.052;14.544;2023-07-13T05:37:01;98133.78;;;20.28;100.00
56182;BME280;51963;46.052;14.544;2023-07-13T05:39:27;98126.50;;;20.28;100.00
56182;BME280;51963;46.052;14.544;2023-07-13T05:41:53;98130.69;;;20.14;100.00
56182;BME280;51963;46.052;14.544;2023-07-13T05:44:19;98140.47;;;20.30;100.00
56182;BME280;51963;46.052;14.544;2023-07-13T05:46:45;98130.34;;;20.37;100.00
56182;BME280;51963;46.052;14.544;2023-07-13T05:49:11;98131.88;;;20.28;100.00
56182;BME280;51963;46.052;14.544;2023-07-13T05:51:36;98134.28;;;20.67;100.00
56182;BME280;51963;46.052;14.544;2023-07-13T05:54:02;98130.53;;;20.69;100.00
56182;BME280;51963;46.052;14.544;2023-07-13T05:56:28;98130.47;;;21.01;100.00
56182;BME280;51963;46.052;14.544;2023-07-13T05:58:54;98143.44;;;21.15;100.00
56182;BME280;51963;46.052;14.544;2023-07-13T06:01:20;98149.00;;;21.03;100.00
56182;BME280;51963;46.052;14.544;2023-07-13T06:03:46;98138.19;;;20.87;100.00
56182;BME280;51963;46.052;14.544;2023-07-13T06:06:12;98139.25;;;20.86;100.00
56182;BME280;51963;46.052;14.544;2023-07-13T06:08:38;98137.66;;;20.90;100.00
56182;BME280;51963;46.052;14.544;2023-07-13T06:11:13;98144.09;;;20.89;100.00
56182;BME280;51963;46.052;14.544;2023-07-13T06:13:39;98137.13;;;20.88;100.00
56182;BME280;51963;46.052;14.544;2023-07-13T06:16:05;98132.47;;;21.32;100.00
56182;BME280;51963;46.052;14.544;2023-07-13T06:18:33;98114.19;;;21.29;100.00
56182;BME280;51963;46.052;14.544;2023-07-13T06:20:59;98138.75;;;20.94;100.00
56182;BME280;51963;46.052;14.544;2023-07-13T06:23:25;98138.38;;;21.29;100.00
56182;BME280;51963;46.052;14.544;2023-07-13T06:25:51;98113.91;;;21.30;100.00
56182;BME280;51963;46.052;14.544;2023-07-13T06:28:17;98134.16;;;21.59;100.00
56182;BME280;51963;46.052;14.544;2023-07-13T06:30:42;98151.63;;;21.51;100.00
56182;BME280;51963;46.052;14.544;2023-07-13T06:33:08;98150.28;;;21.48;100.00
56182;BME280;51963;46.052;14.544;2023-07-13T06:35:34;98162.13;;;21.58;100.00
56182;BME280;51963;46.052;14.544;2023-07-13T06:38:02;98155.72;;;21.64;100.00
56182;BME280;51963;46.052;14.544;2023-07-13T06:40:28;98156.75;;;21.58;100.00
56182;BME280;51963;46.052;14.544;2023-07-13T06:42:56;98158.06;;;21.45;100.00
56182;BME280;51963;46.052;14.544;2023-07-13T06:45:23;98147.06;;;21.51;100.00
56182;BME280;51963;46.052;14.544;2023-07-13T06:47:49;98141.75;;;21.72;100.00
56182;BME280;51963;46.052;14.544;2023-07-13T06:50:15;98149.03;;;22.08;100.00
56182;BME280;51963;46.052;14.544;2023-07-13T06:52:41;98143.41;;;22.09;100.00
56182;BME280;51963;46.052;14.544;2023-07-13T06:55:09;98144.75;;;22.12;100.00
56182;BME280;51963;46.052;14.544;2023-07-13T06:57:34;98142.88;;;22.49;100.00
56182;BME280;51963;46.052;14.544;2023-07-13T07:00:00;98133.72;;;22.29;100.00
56182;BME280;51963;46.052;14.544;2023-07-13T07:02:29;98144.50;;;22.50;100.00
56182;BME280;51963;46.052;14.544;2023-07-13T07:04:54;98135.06;;;22.47;100.00
56182;BME280;51963;46.052;14.544;2023-07-13T07:07:23;98149.59;;;22.36;100.00
56182;BME280;51963;46.052;14.544;2023-07-13T07:09:49;98146.13;;;22.51;100.00
56182;BME280;51963;46.052;14.544;2023-07-13T07:12:17;98132.38;;;23.39;100.00
56182;BME280;51963;46.052;14.544;2023-07-13T07:14:43;98132.19;;;23.70;100.00
56182;BME280;51963;46.052;14.544;2023-07-13T07:17:09;98132.84;;;22.80;100.00
56182;BME280;51963;46.052;14.544;2023-07-13T07:19:35;98113.22;;;22.64;100.00
56182;BME280;51963;46.052;14.544;2023-07-13T07:22:03;98130.34;;;22.99;100.00
56182;BME280;51963;46.052;14.544;2023-07-13T07:24:29;98136.06;;;23.53;100.00
56182;BME280;51963;46.052;14.544;2023-07-13T07:26:57;98133.47;;;23.38;100.00
56182;BME280;51963;46.052;14.544;2023-07-13T07:29:25;98139.66;;;23.83;100.00
56182;BME280;51963;46.052;14.544;2023-07-13T07:31:53;98140.00;;;23.71;100.00
56182;BME280;51963;46.052;14.544;2023-07-13T07:34:19;98146.38;;;23.41;100.00
56182;BME280;51963;46.052;14.544;2023-07-13T07:36:45;98138.47;;;22.94;100.00
56182;BME280;51963;46.052;14.544;2023-07-13T07:39:13;98136.09;;;22.72;100.00
56182;BME280;51963;46.052;14.544;2023-07-13T07:41:39;98129.56;;;23.59;100.00
56182;BME280;51963;46.052;14.544;2023-07-13T07:44:05;98126.53;;;24.11;100.00
56182;BME280;51963;46.052;14.544;2023-07-13T07:46:32;98132.91;;;23.86;100.00
56182;BME280;51963;46.052;14.544;2023-07-13T07:48:58;98094.41;;;23.70;100.00
56182;BME280;51963;46.052;14.544;2023-07-13T07:51:24;98106.81;;;24.40;100.00
56182;BME280;51963;46.052;14.544;2023-07-13T07:53:52;98106.72;;;24.80;100.00
56182;BME280;51963;46.052;14.544;2023-07-13T07:56:20;98108.97;;;24.73;99.46
56182;BME280;51963;46.052;14.544;2023-07-13T07:58:45;98126.66;;;25.09;97.56
56182;BME280;51963;46.052;14.544;2023-07-13T08:01:11;98125.03;;;25.08;93.76
56182;BME280;51963;46.052;14.544;2023-07-13T08:03:37;98123.16;;;24.84;95.44
56182;BME280;51963;46.052;14.544;2023-07-13T08:06:02;98120.06;;;25.15;94.52
56182;BME280;51963;46.052;14.544;2023-07-13T08:08:28;98128.84;;;25.07;93.60
56182;BME280;51963;46.052;14.544;2023-07-13T08:10:54;98123.69;;;25.29;93.03
56182;BME280;51963;46.052;14.544;2023-07-13T08:13:20;98124.88;;;25.42;90.96
56182;BME280;51963;46.052;14.544;2023-07-13T08:15:48;98089.09;;;25.26;91.22
56182;BME280;51963;46.052;14.544;2023-07-13T08:18:15;98138.63;;;25.46;93.04
56182;BME280;51963;46.052;14.544;2023-07-13T08:20:41;98142.22;;;25.17;93.92
56182;BME280;51963;46.052;14.544;2023-07-13T08:23:09;98153.94;;;25.12;94.56
56182;BME280;51963;46.052;14.544;2023-07-13T08:25:35;98135.81;;;24.59;96.68
56182;BME280;51963;46.052;14.544;2023-07-13T08:28:03;98126.31;;;24.91;97.60
56182;BME280;51963;46.052;14.544;2023-07-13T08:30:28;98112.78;;;25.34;95.61
56182;BME280;51963;46.052;14.544;2023-07-13T08:32:54;98108.31;;;25.68;90.82
56182;BME280;51963;46.052;14.544;2023-07-13T08:35:20;98118.19;;;25.59;93.22
56182;BME280;51963;46.052;14.544;2023-07-13T08:37:48;98110.25;;;25.43;92.70
56182;BME280;51963;46.052;14.544;2023-07-13T08:40:19;98117.28;;;25.44;92.91
56182;BME280;51963;46.052;14.544;2023-07-13T08:42:58;98116.91;;;25.32;94.84
56182;BME280;51963;46.052;14.544;2023-07-13T08:48:09;98115.22;;;25.93;89.75
56182;BME280;51963;46.052;14.544;2023-07-13T08:50:55;98099.19;;;25.97;89.79
56182;BME280;51963;46.052;14.544;2023-07-13T08:53:23;98090.41;;;25.86;89.91
56182;BME280;51963;46.052;14.544;2023-07-13T08:55:57;98105.31;;;26.03;90.12
56182;BME280;51963;46.052;14.544;2023-07-13T08:58:24;98105.00;;;25.71;90.35
56182;BME280;51963;46.052;14.544;2023-07-13T09:01:15;98107.56;;;25.82;91.59
56182;BME280;51963;46.052;14.544;2023-07-13T09:06:40;98107.78;;;25.47;93.62
56182;BME280;51963;46.052;14.544;2023-07-13T09:10:05;98131.59;;;25.01;95.01
56182;BME280;51963;46.052;14.544;2023-07-13T09:14:52;98134.94;;;24.93;95.27
56182;BME280;51963;46.052;14.544;2023-07-13T09:17:23;98128.94;;;24.96;98.59
56182;BME280;51963;46.052;14.544;2023-07-13T09:19:56;98127.63;;;25.18;95.71
56182;BME280;51963;46.052;14.544;2023-07-13T09:22:24;98132.16;;;25.42;98.18
56182;BME280;51963;46.052;14.544;2023-07-13T09:25:10;98142.97;;;25.47;97.73
56182;BME280;51963;46.052;14.544;2023-07-13T09:27:44;98146.47;;;25.86;90.80
56182;BME280;51963;46.052;14.544;2023-07-13T09:32:44;98126.66;;;26.24;88.26
56182;BME280;51963;46.052;14.544;2023-07-13T09:35:17;98106.50;;;26.30;89.46
56182;BME280;51963;46.052;14.544;2023-07-13T09:37:47;98104.63;;;26.11;91.46
56182;BME280;51963;46.052;14.544;2023-07-13T09:40:24;98100.81;;;26.45;88.39
56182;BME280;51963;46.052;14.544;2023-07-13T09:42:54;98108.53;;;26.38;85.99
56182;BME280;51963;46.052;14.544;2023-07-13T09:45:30;98114.06;;;25.61;90.56
56182;BME280;51963;46.052;14.544;2023-07-13T09:48:04;98103.22;;;25.42;94.11
56182;BME280;51963;46.052;14.544;2023-07-13T09:50:30;98086.06;;;25.52;94.49
56182;BME280;51963;46.052;14.544;2023-07-13T09:52:56;98112.91;;;26.01;97.70
56182;BME280;51963;46.052;14.544;2023-07-13T09:57:52;98116.63;;;27.27;87.18
56182;BME280;51963;46.052;14.544;2023-07-13T10:00:24;98121.94;;;27.18;86.73
56182;BME280;51963;46.052;14.544;2023-07-13T10:03:16;98119.28;;;27.41;88.10
56182;BME280;51963;46.052;14.544;2023-07-13T10:05:45;98118.06;;;27.61;85.44
56182;BME280;51963;46.052;14.544;2023-07-13T10:08:25;98131.19;;;27.17;86.03
56182;BME280;51963;46.052;14.544;2023-07-13T10:10:58;98137.56;;;26.85;87.92
56182;BME280;51963;46.052;14.544;2023-07-13T10:13:31;98131.94;;;26.48;89.00
56182;BME280;51963;46.052;14.544;2023-07-13T10:15:59;98120.59;;;26.46;92.57
56182;BME280;51963;46.052;14.544;2023-07-13T10:18:25;98109.22;;;26.30;94.46
56182;BME280;51963;46.052;14.544;2023-07-13T10:21:10;98116.13;;;26.03;97.87
56182;BME280;51963;46.052;14.544;2023-07-13T10:23:36;98117.22;;;25.69;99.88
56182;BME280;51963;46.052;14.544;2023-07-13T10:26:03;98121.69;;;25.59;100.00
56182;BME280;51963;46.052;14.544;2023-07-13T10:28:36;98123.94;;;25.71;96.18
56182;BME280;51963;46.052;14.544;2023-07-13T10:31:06;98122.47;;;25.79;94.44
56182;BME280;51963;46.052;14.544;2023-07-13T10:33:37;98104.94;;;25.57;98.96
56182;BME280;51963;46.052;14.544;2023-07-13T10:36:31;98097.16;;;25.70;96.35
56182;BME280;51963;46.052;14.544;2023-07-13T10:39:03;98079.22;;;26.07;94.96
56182;BME280;51963;46.052;14.544;2023-07-13T10:41:34;98082.34;;;26.00;100.00
56182;BME280;51963;46.052;14.544;2023-07-13T10:44:07;98055.13;;;25.91;100.00
56182;BME280;51963;46.052;14.544;2023-07-13T10:46:41;98068.75;;;25.86;100.00
56182;BME280;51963;46.052;14.544;2023-07-13T10:49:12;98054.69;;;25.51;100.00
56182;BME280;51963;46.052;14.544;2023-07-13T10:51:39;98048.59;;;25.21;100.00
56182;BME280;51963;46.052;14.544;2023-07-13T10:54:16;98048.72;;;24.92;100.00
56182;BME280;51963;46.052;14.544;2023-07-13T10:56:43;98059.34;;;24.58;100.00
56182;BME280;51963;46.052;14.544;2023-07-13T10:59:12;98090.38;;;24.37;100.00
56182;BME280;51963;46.052;14.544;2023-07-13T11:01:56;98107.09;;;24.09;100.00
56182;BME280;51963;46.052;14.544;2023-07-13T11:04:25;98092.09;;;23.93;100.00
56182;BME280;51963;46.052;14.544;2023-07-13T11:06:59;98065.44;;;23.81;100.00
56182;BME280;51963;46.052;14.544;2023-07-13T11:09:40;98061.06;;;23.55;100.00
56182;BME280;51963;46.052;14.544;2023-07-13T11:14:37;98114.66;;;23.17;100.00
56182;BME280;51963;46.052;14.544;2023-07-13T11:25:30;97999.56;;;23.07;100.00
56182;BME280;51963;46.052;14.544;2023-07-13T11:30:39;97994.03;;;22.88;100.00
56182;BME280;51963;46.052;14.544;2023-07-13T11:36:12;97976.41;;;22.56;100.00
56182;BME280;51963;46.052;14.544;2023-07-13T11:38:43;97976.69;;;22.39;100.00
56182;BME280;51963;46.052;14.544;2023-07-13T11:41:15;97987.25;;;22.20;100.00
56182;BME280;51963;46.052;14.544;2023-07-13T11:43:44;97986.22;;;22.05;100.00
56182;BME280;51963;46.052;14.544;2023-07-13T11:46:24;98029.56;;;21.93;100.00
56182;BME280;51963;46.052;14.544;2023-07-13T11:48:51;98048.94;;;21.75;100.00
56182;BME280;51963;46.052;14.544;2023-07-13T11:54:01;98053.72;;;21.57;100.00
56182;BME280;51963;46.052;14.544;2023-07-13T11:56:28;98040.06;;;21.69;100.00
56182;BME280;51963;46.052;14.544;2023-07-13T11:58:56;98105.66;;;21.52;100.00
56182;BME280;51963;46.052;14.544;2023-07-13T12:01:31;98140.53;;;21.27;100.00
56182;BME280;51963;46.052;14.544;2023-07-13T12:04:02;98058.31;;;21.46;100.00
56182;BME280;51963;46.052;14.544;2023-07-13T12:06:31;97948.00;;;21.00;100.00
56182;BME280;51963;46.052;14.544;2023-07-13T12:09:03;98031.34;;;21.15;100.00
56182;BME280;51963;46.052;14.544;2023-07-13T12:11:30;98057.97;;;21.17;100.00
56182;BME280;51963;46.052;14.544;2023-07-13T12:13:56;98105.56;;;21.21;100.00
56182;BME280;51963;46.052;14.544;2023-07-13T12:16:28;98114.44;;;21.22;100.00
56182;BME280;51963;46.052;14.544;2023-07-13T12:18:56;98083.50;;;21.19;100.00
56182;BME280;51963;46.052;14.544;2023-07-13T12:21:33;98029.78;;;21.24;100.00
56182;BME280;51963;46.052;14.544;2023-07-13T12:24:00;98009.59;;;21.17;100.00
56182;BME280;51963;46.052;14.544;2023-07-13T12:26:28;98023.00;;;21.06;100.00
56182;BME280;51963;46.052;14.544;2023-07-13T12:28:55;98056.34;;;21.16;100.00
56182;BME280;51963;46.052;14.544;2023-07-13T12:31:31;98149.03;;;21.08;100.00
56182;BME280;51963;46.052;14.544;2023-07-13T12:34:06;98154.75;;;21.22;100.00
56182;BME280;51963;46.052;14.544;2023-07-13T12:36:34;98145.47;;;20.92;100.00
56182;BME280;51963;46.052;14.544;2023-07-13T12:39:06;98107.44;;;20.73;100.00
56182;BME280;51963;46.052;14.544;2023-07-13T12:41:42;98079.41;;;20.53;100.00
56182;BME280;51963;46.052;14.544;2023-07-13T12:44:19;98039.13;;;20.53;100.00
56182;BME280;51963;46.052;14.544;2023-07-13T12:47:04;98068.63;;;20.43;100.00
56182;BME280;51963;46.052;14.544;2023-07-13T12:49:33;98093.84;;;20.42;100.00
56182;BME280;51963;46.052;14.544;2023-07-13T12:52:03;98095.00;;;20.56;100.00
56182;BME280;51963;46.052;14.544;2023-07-13T12:54:30;98093.84;;;20.79;100.00
56182;BME280;51963;46.052;14.544;2023-07-13T12:56:58;98078.59;;;21.01;100.00
56182;BME280;51963;46.052;14.544;2023-07-13T12:59:29;98072.00;;;21.45;100.00
56182;BME280;51963;46.052;14.544;2023-07-13T13:01:58;98057.75;;;21.39;100.00
56182;BME280;51963;46.052;14.544;2023-07-13T13:04:30;98062.56;;;21.21;100.00
56182;BME280;51963;46.052;14.544;2023-07-13T13:07:03;98051.72;;;21.01;100.00
56182;BME280;51963;46.052;14.544;2023-07-13T13:09:31;98080.66;;;20.83;100.00
56182;BME280;51963;46.052;14.544;2023-07-13T13:11:57;98116.69;;;20.87;100.00
56182;BME280;51963;46.052;14.544;2023-07-13T13:14:23;98088.78;;;20.99;100.00
56182;BME280;51963;46.052;14.544;2023-07-13T13:16:50;98035.41;;;20.59;100.00
56182;BME280;51963;46.052;14.544;2023-07-13T13:19:24;98039.41;;;20.51;100.00
56182;BME280;51963;46.052;14.544;2023-07-13T13:21:51;98059.88;;;20.63;100.00
56182;BME280;51963;46.052;14.544;2023-07-13T13:24:22;98042.66;;;20.59;100.00